Terminal Aerodrome Forecast
Issued by NWS Denver/Boulder, CO

Home | Current Version | Previous Version | Text Only | Print | Product List | Glossary On
Versions: 1 2 3 4 5 6 7 8 9 10 11 12 13 14 15 16 17 18 19 20 21 22 23 24 25 26 27 28 29 30 31 32 33 34 35 36 37 38 39 40 41 42 43 44 45 46 47 48 49 50
950
FTUS45 KBOU 010934 AAG
TAFDEN
TAF AMD
KDEN 010934Z 0110/0212 35012KT 6SM -SN SCT014 OVC025
      TEMPO 0110/0112 BKN014
     FM011900 03012KT P6SM VCSH SCT012 OVC020
      TEMPO 0119/0123 5SM -SNRA BR BKN010
     FM020100 06008KT P6SM VCSH SCT015 BKN030 OVC060
     FM020400 18005KT P6SM SCT030 BKN060
     FM020900 23006KT P6SM SCT060 BKN100=

USA.gov is the U.S. government's official web portal to all federal, state and local government web resources and services.